createdAt,value
2022-12-20T00:01:34.740Z,103161.81
2022-12-20T00:04:03.880Z,103158.78
2022-12-20T00:06:31.547Z,103160.25
2022-12-20T00:08:59.530Z,103153.69
2022-12-20T00:11:27.110Z,103150.66
2022-12-20T00:13:54.555Z,103147.44
2022-12-20T00:16:22.887Z,103143.00
2022-12-20T00:18:54.055Z,103140.50
2022-12-20T00:21:21.427Z,103143.69
2022-12-20T00:23:48.894Z,103139.81
2022-12-20T00:26:17.075Z,103141.84
2022-12-20T00:28:45.495Z,103142.63
2022-12-20T00:31:13.473Z,103134.03
2022-12-20T00:33:41.338Z,103136.25
2022-12-20T00:36:09.456Z,103140.09
2022-12-20T00:38:38.075Z,103128.00
2022-12-20T00:41:09.373Z,103119.00
2022-12-20T00:43:37.595Z,103125.75
2022-12-20T00:46:05.051Z,103115.81
2022-12-20T00:48:33.272Z,103115.28
2022-12-20T00:51:01.145Z,103111.34
2022-12-20T00:53:28.744Z,103114.06
2022-12-20T00:55:56.206Z,103106.13
2022-12-20T00:58:23.568Z,103103.06
2022-12-20T01:00:56.114Z,103103.00
2022-12-20T01:03:24.767Z,103107.13
2022-12-20T05:03:43.307Z,103038.09
2022-12-20T05:06:10.962Z,103031.22
2022-12-20T05:08:40.357Z,103033.84
2022-12-20T05:11:08.448Z,103037.03
2022-12-20T05:13:36.816Z,103036.16
2022-12-20T05:16:05.366Z,103030.81
2022-12-20T05:18:35.002Z,103034.69
2022-12-20T05:21:25.669Z,103032.09
2022-12-20T05:24:13.056Z,103031.25
2022-12-20T05:26:57.487Z,103028.59
2022-12-20T05:29:25.035Z,103028.59
2022-12-20T05:31:52.904Z,103028.50
2022-12-20T05:34:20.584Z,103028.31
2022-12-20T05:36:52.552Z,103031.13
2022-12-20T05:39:21.686Z,103025.59
2022-12-20T05:41:51.468Z,103035.34
2022-12-20T05:44:22.389Z,103032.38
2022-12-20T05:46:53.127Z,103016.94
2022-12-20T05:49:26.750Z,103031.03
2022-12-20T05:51:55.410Z,103034.59
2022-12-20T05:54:25.704Z,103027.31
2022-12-20T05:57:02.718Z,103017.38
2022-12-20T05:59:36.446Z,103029.88
2022-12-20T06:02:06.431Z,103026.25
2022-12-20T06:04:38.358Z,103029.56
2022-12-20T06:07:13.674Z,103019.19
2022-12-20T06:09:43.751Z,103020.78
2022-12-20T06:12:16.679Z,103018.59
2022-12-20T06:14:44.530Z,103017.56
2022-12-20T06:17:15.112Z,103021.44
2022-12-20T06:19:43.459Z,103011.75
2022-12-20T06:22:13.673Z,103008.34
2022-12-20T06:24:48.207Z,103005.97
2022-12-20T06:27:22.186Z,103014.69
2022-12-20T06:29:57.816Z,103002.28
2022-12-20T06:32:30.758Z,102997.50
2022-12-20T06:34:58.278Z,102995.78
2022-12-20T06:37:25.724Z,103000.13
2022-12-20T06:39:53.276Z,103004.63
2022-12-20T06:42:21.317Z,103007.03
2022-12-20T06:44:48.959Z,103003.38
2022-12-20T06:47:16.497Z,103002.84
2022-12-20T06:49:43.901Z,103009.34
2022-12-20T06:52:19.404Z,103014.09
2022-12-20T06:54:49.736Z,103010.97
2022-12-20T06:57:17.208Z,103005.50
2022-12-20T06:59:47.567Z,103013.78
2022-12-20T07:02:15.239Z,103009.41
2022-12-20T07:04:42.841Z,103003.00
2022-12-20T07:07:13.609Z,103002.78
2022-12-20T07:09:42.926Z,102991.03
2022-12-20T07:12:12.035Z,102985.41
2022-12-20T07:14:39.432Z,102988.66
2022-12-20T07:17:07.944Z,102973.41
2022-12-20T07:19:36.973Z,102972.34
2022-12-20T07:22:04.587Z,102976.41
2022-12-20T07:24:32.536Z,102971.56
2022-12-20T07:26:59.991Z,102977.97
2022-12-20T07:29:27.533Z,102967.09
2022-12-20T07:31:56.784Z,102973.22
2022-12-20T07:34:24.252Z,102964.56
2022-12-20T07:36:53.545Z,102956.56
2022-12-20T07:39:21.224Z,102960.16
2022-12-20T07:41:50.148Z,102973.06
2022-12-20T07:44:17.657Z,102979.28
2022-12-20T07:46:45.205Z,102965.09
2022-12-20T07:49:12.743Z,102952.22
2022-12-20T07:51:41.573Z,102957.50
2022-12-20T07:54:11.814Z,102955.25
2022-12-20T07:56:41.625Z,102941.00
2022-12-20T07:59:09.782Z,102939.56
2022-12-20T08:01:37.787Z,102939.09
2022-12-20T08:04:13.547Z,102923.84
2022-12-20T08:06:41.434Z,102922.00
2022-12-20T08:09:08.997Z,102924.31
2022-12-20T08:11:36.829Z,102918.44
2022-12-20T08:14:05.370Z,102916.75
2022-12-20T08:16:33.722Z,102924.41
2022-12-20T08:19:01.398Z,102914.94
2022-12-20T08:21:30.103Z,102905.56
2022-12-20T08:23:57.870Z,102910.28
2022-12-20T08:26:25.372Z,102900.09
2022-12-20T08:28:52.796Z,102889.63
2022-12-20T08:31:22.090Z,102881.97
2022-12-20T08:33:49.673Z,102884.84
2022-12-20T08:36:17.078Z,102871.31
2022-12-20T08:38:44.525Z,102871.63
2022-12-20T08:41:13.502Z,102866.34
2022-12-20T08:43:41.218Z,102853.97
2022-12-20T08:46:08.878Z,102863.34
2022-12-20T08:48:36.372Z,102862.72
2022-12-20T08:51:04.996Z,102861.78
2022-12-20T08:53:32.838Z,102852.63
2022-12-20T08:56:06.131Z,102849.44
2022-12-20T08:58:33.748Z,102847.50
2022-12-20T09:01:06.307Z,102847.38
2022-12-20T09:03:35.088Z,102847.16
2022-12-20T09:06:06.877Z,102831.34
2022-12-20T09:08:35.195Z,102826.94
2022-12-20T09:11:07.209Z,102824.38
2022-12-20T09:13:39.696Z,102813.59
2022-12-20T09:16:11.171Z,102824.00
2022-12-20T09:18:38.883Z,102814.47
2022-12-20T09:21:06.514Z,102820.16
2022-12-20T09:23:34.782Z,102807.56
2022-12-20T09:26:06.076Z,102810.38
2022-12-20T09:28:33.599Z,102807.78
2022-12-20T09:31:01.772Z,102797.94
2022-12-20T09:33:29.377Z,102802.09
2022-12-20T09:35:56.930Z,102791.47
2022-12-20T09:38:25.296Z,102790.19
2022-12-20T09:40:56.673Z,102784.28
2022-12-20T09:43:33.614Z,102780.22
2022-12-20T09:46:01.850Z,102777.31
2022-12-20T09:48:30.986Z,102772.06
2022-12-20T09:50:58.455Z,102771.16
2022-12-20T09:53:29.511Z,102754.63
2022-12-20T09:55:59.518Z,102755.25
2022-12-20T09:58:45.980Z,102762.88
2022-12-20T10:01:23.044Z,102763.47
2022-12-20T10:03:53.075Z,102753.38
2022-12-20T10:06:26.469Z,102746.75
2022-12-20T10:09:03.801Z,102738.69
2022-12-20T10:11:52.713Z,102739.13
2022-12-20T10:14:33.285Z,102731.47
2022-12-20T10:17:02.597Z,102726.81
2022-12-20T10:19:55.745Z,102714.50
2022-12-20T10:22:31.049Z,102706.09
2022-12-20T10:25:00.250Z,102696.69
2022-12-20T10:27:27.931Z,102685.78
2022-12-20T10:29:55.552Z,102685.88
2022-12-20T10:32:23.487Z,102679.22
2022-12-20T10:35:00.050Z,102668.56
2022-12-20T10:37:27.633Z,102677.81
2022-12-20T10:39:54.978Z,102667.38
2022-12-20T10:42:22.366Z,102666.72
2022-12-20T10:44:49.817Z,102660.34
2022-12-20T10:47:31.482Z,102653.56
2022-12-20T10:50:08.784Z,102646.66
2022-12-20T14:36:19.848Z,102305.47
2022-12-20T14:38:50.890Z,102307.78
2022-12-20T14:41:27.497Z,102303.06
2022-12-20T14:43:55.188Z,102295.13
2022-12-20T14:46:26.085Z,102291.09
2022-12-20T14:49:26.469Z,102279.78
2022-12-20T14:52:04.309Z,102286.25
2022-12-20T14:57:23.164Z,102279.97
2022-12-20T15:00:01.006Z,102271.13
2022-12-20T15:02:34.575Z,102272.38
2022-12-20T15:05:40.865Z,102264.22
2022-12-20T15:08:14.781Z,102273.72
2022-12-20T15:10:50.822Z,102266.63
2022-12-20T15:13:19.170Z,102262.81
2022-12-20T15:15:46.984Z,102264.06
2022-12-20T15:18:18.156Z,102263.84
2022-12-20T15:20:46.488Z,102263.28
2022-12-20T15:23:15.697Z,102261.25
2022-12-20T15:25:44.021Z,102263.41
2022-12-20T15:28:19.095Z,102264.44
2022-12-20T15:30:47.585Z,102251.50
2022-12-20T15:33:16.921Z,102255.25
2022-12-20T15:35:45.067Z,102250.03
2022-12-20T15:38:16.797Z,102246.94
2022-12-20T15:40:45.407Z,102247.63
2022-12-20T15:43:13.920Z,102256.81
2022-12-20T15:45:42.440Z,102235.16
2022-12-20T15:48:17.095Z,102226.78
2022-12-20T15:50:45.533Z,102220.06
2022-12-20T15:53:14.562Z,102215.47
2022-12-20T15:55:42.500Z,102213.19
2022-12-20T15:58:11.846Z,102199.38
2022-12-20T16:00:40.815Z,102200.53
2022-12-20T16:03:14.036Z,102195.25
2022-12-20T16:05:42.015Z,102190.47
2022-12-20T16:08:09.819Z,102195.94
2022-12-20T16:10:38.005Z,102199.63
2022-12-20T16:13:05.547Z,102194.44
2022-12-20T16:15:33.230Z,102192.22
2022-12-20T16:18:00.668Z,102184.88
2022-12-20T16:20:29.646Z,102191.47
2022-12-20T16:22:57.412Z,102190.44
2022-12-20T16:25:31.695Z,102176.28
2022-12-20T16:27:59.252Z,102180.31
2022-12-20T16:30:27.084Z,102185.88
2022-12-20T16:32:54.542Z,102197.81
2022-12-20T16:35:28.424Z,102183.00
2022-12-20T16:37:57.210Z,102176.56
2022-12-20T16:40:25.411Z,102181.72
2022-12-20T16:42:53.032Z,102176.84
2022-12-20T16:45:22.686Z,102166.94
2022-12-20T16:47:50.615Z,102172.53
2022-12-20T16:50:19.244Z,102170.69
2022-12-20T16:52:46.873Z,102173.81
2022-12-20T16:55:16.110Z,102170.56
2022-12-20T16:57:43.714Z,102173.13
2022-12-20T17:00:15.870Z,102167.38
2022-12-20T17:02:44.793Z,102170.53
2022-12-20T17:05:18.361Z,102163.34
2022-12-20T17:07:45.772Z,102168.09
2022-12-20T17:10:13.532Z,102164.78
2022-12-20T17:12:41.057Z,102159.50
2022-12-20T17:15:13.200Z,102158.63
2022-12-20T17:17:41.193Z,102157.75
2022-12-20T17:20:08.738Z,102164.22
2022-12-20T17:22:36.133Z,102156.31
2022-12-20T17:25:03.871Z,102145.41
2022-12-20T17:27:31.429Z,102147.41
2022-12-20T17:29:59.040Z,102133.06
2022-12-20T17:32:26.713Z,102128.31
2022-12-20T17:34:54.605Z,102128.59
2022-12-20T17:37:22.327Z,102120.06
2022-12-20T17:39:50.524Z,102115.41
2022-12-20T17:42:18.053Z,102111.69
2022-12-20T17:44:46.471Z,102114.50
2022-12-20T17:47:14.278Z,102106.31
2022-12-20T17:49:41.593Z,102098.75
2022-12-20T17:52:15.131Z,102105.16
2022-12-20T17:54:42.622Z,102097.84
2022-12-20T17:57:14.232Z,102098.72
2022-12-20T17:59:42.499Z,102087.25
2022-12-20T18:02:23.222Z,102092.00
2022-12-20T18:04:51.178Z,102080.53
2022-12-20T18:07:18.647Z,102092.16
2022-12-20T18:09:46.751Z,102077.25
2022-12-20T18:12:14.097Z,102076.94
2022-12-20T18:14:41.491Z,102071.03
2022-12-20T18:17:08.859Z,102068.03
2022-12-20T18:19:36.361Z,102070.75
2022-12-20T18:22:04.950Z,102066.47
2022-12-20T18:24:32.536Z,102057.66
2022-12-20T18:26:59.887Z,102057.13
2022-12-20T18:29:27.326Z,102053.31
2022-12-20T18:31:54.960Z,102057.88
2022-12-20T18:34:22.592Z,102057.88
2022-12-20T18:36:50.029Z,102052.38
2022-12-20T18:39:17.365Z,102054.22
2022-12-20T18:41:44.838Z,102054.56
2022-12-20T18:44:12.304Z,102057.16
2022-12-20T18:46:40.963Z,102053.06
2022-12-20T18:49:08.967Z,102044.13
2022-12-20T18:51:39.366Z,102050.81
2022-12-20T18:54:10.318Z,102051.84
2022-12-20T18:56:37.932Z,102045.66
2022-12-20T18:59:11.496Z,102050.28
2022-12-20T19:01:40.605Z,102047.63
2022-12-20T19:04:08.630Z,102041.44
2022-12-20T19:06:36.380Z,102048.09
2022-12-20T19:09:05.240Z,102037.09
2022-12-20T19:11:32.770Z,102043.66
2022-12-20T23:35:58.181Z,101741.41
2022-12-20T23:38:25.504Z,101759.47
2022-12-20T23:40:53.017Z,101758.41
2022-12-20T23:43:20.354Z,101774.75
2022-12-20T23:45:47.715Z,101757.00
2022-12-20T23:48:15.189Z,101744.03
2022-12-20T23:50:42.478Z,101744.97
2022-12-20T23:53:10.096Z,101744.47
2022-12-20T23:55:37.428Z,101753.28
2022-12-20T23:58:04.813Z,101765.41
